Time;durP1;ratioP1;P1;durP2;ratioP2;P2;SDS_P1;SDS_P2;PMS_P1;PMS_P2;Temp;Humidity;BMP_temperature;BMP_pressure;BME280_temperature;BME280_humidity;BME280_pressure;Samples;Min_cycle;Max_cycle;Signal;HPM_P1;HPM_P2
2024/01/04 00:00:04;;;;;;;0.60;0.60;;;;;;;11.23;50.83;100311.41;6093297;23;20365;-92
2024/01/04 00:02:30;;;;;;;0.20;0.20;;;;;;;11.23;50.93;100322.03;6093101;23;20374;-91
2024/01/04 00:05:06;;;;;;;0.20;0.20;;;;;;;11.20;51.08;100317.91;6093080;23;20443;-92
2024/01/04 00:07:34;;;;;;;0.50;0.50;;;;;;;11.14;50.96;100320.47;6093092;23;20852;-90
2024/01/04 00:10:03;;;;;;;0.60;0.40;;;;;;;11.13;50.91;100329.44;6068171;23;20366;-91
2024/01/04 00:12:29;;;;;;;0.10;0.10;;;;;;;11.12;51.13;100338.41;6068690;23;20706;-91
2024/01/04 00:14:54;;;;;;;0.40;0.40;;;;;;;11.06;50.95;100337.31;6092133;23;20371;-92
2024/01/04 00:17:21;;;;;;;0.20;0.20;;;;;;;10.82;51.32;100348.97;6092270;23;20372;-91
2024/01/04 00:19:50;;;;;;;0.55;0.55;;;;;;;10.58;52.09;100342.09;6093120;23;20452;-92
2024/01/04 00:22:16;;;;;;;0.30;0.30;;;;;;;10.51;52.45;100349.91;6072796;23;20365;-92
2024/01/04 00:24:43;;;;;;;0.10;0.10;;;;;;;10.42;52.85;100350.97;6075335;23;20404;-92
2024/01/04 00:27:11;;;;;;;0.30;0.30;;;;;;;10.38;52.62;100352.34;6073171;23;20370;-92
2024/01/04 00:29:42;;;;;;;0.20;0.20;;;;;;;10.41;52.56;100352.00;6074261;23;20441;-90
2024/01/04 00:32:13;;;;;;;0.30;0.30;;;;;;;10.41;52.46;100350.16;6089058;23;20413;-92
2024/01/04 00:34:41;;;;;;;0.10;0.10;;;;;;;10.40;52.12;100343.22;6094050;23;20377;-91
2024/01/04 00:37:07;;;;;;;0.70;0.40;;;;;;;10.49;52.38;100355.38;6093100;23;20701;-91
2024/01/04 00:39:33;;;;;;;0.20;0.20;;;;;;;10.54;52.38;100356.69;6090351;23;20908;-91
2024/01/04 00:42:03;;;;;;;0.20;0.20;;;;;;;10.48;51.95;100337.03;6109198;23;20400;-91
2024/01/04 00:44:30;;;;;;;0.40;0.30;;;;;;;10.51;51.83;100339.31;6069222;23;20385;-90
2024/01/04 00:46:58;;;;;;;0.10;0.10;;;;;;;10.50;51.84;100337.69;6093487;23;20369;-90
2024/01/04 00:49:24;;;;;;;0.30;0.30;;;;;;;10.54;51.97;100335.50;6093755;23;20366;-91
2024/01/04 00:51:50;;;;;;;0.30;0.30;;;;;;;10.59;51.66;100339.25;6105548;23;20405;-91
2024/01/04 00:54:16;;;;;;;0.22;0.22;;;;;;;10.57;51.73;100337.78;6091685;23;20372;-91
2024/01/04 00:56:42;;;;;;;0.10;0.10;;;;;;;10.47;51.65;100330.91;6085770;23;20362;-91
2024/01/04 00:59:07;;;;;;;0.30;0.30;;;;;;;10.51;51.92;100336.66;6070094;23;20440;-91
2024/01/04 01:01:33;;;;;;;0.10;0.10;;;;;;;10.43;51.95;100331.44;6069319;23;20374;-91
2024/01/04 01:04:00;;;;;;;0.10;0.10;;;;;;;10.40;52.08;100335.25;6094516;23;20400;-91
2024/01/04 01:06:25;;;;;;;0.22;0.22;;;;;;;10.24;52.15;100325.56;6070381;23;20444;-90
2024/01/04 01:08:51;;;;;;;0.10;0.10;;;;;;;10.16;52.42;100330.97;6095335;23;20372;-92
2024/01/04 01:11:17;;;;;;;0.53;0.53;;;;;;;10.12;52.67;100335.78;6096711;23;20810;-93
2024/01/04 01:13:43;;;;;;;0.32;0.32;;;;;;;10.10;52.65;100316.59;6095470;23;20362;-91
2024/01/04 01:16:11;;;;;;;0.30;0.30;;;;;;;10.19;52.35;100335.06;6069208;23;20366;-90
2024/01/04 01:18:40;;;;;;;0.40;0.40;;;;;;;10.25;52.59;100332.53;6070671;23;20425;-93
2024/01/04 01:21:08;;;;;;;0.40;0.40;;;;;;;10.17;52.66;100324.63;6070742;23;20358;-93
2024/01/04 01:23:34;;;;;;;0.45;0.45;;;;;;;10.16;52.89;100322.19;6069381;23;20381;-94
2024/01/04 01:26:02;;;;;;;0.30;0.30;;;;;;;10.22;53.23;100327.59;6068834;23;20369;-93
2024/01/04 01:28:29;;;;;;;0.60;0.57;;;;;;;10.25;52.96;100321.13;6070419;23;20408;-93
2024/01/04 01:30:58;;;;;;;0.80;0.50;;;;;;;10.24;53.14;100308.88;6071329;23;20365;-92
2024/01/04 01:33:26;;;;;;;0.50;0.30;;;;;;;10.33;53.66;100318.44;6096363;23;20354;-94
2024/01/04 01:35:52;;;;;;;0.20;0.20;;;;;;;10.38;53.72;100313.44;6072438;23;20360;-94
2024/01/04 01:38:18;;;;;;;0.10;0.10;;;;;;;10.42;53.63;100304.09;6078238;23;20405;-93
2024/01/04 01:40:43;;;;;;;0.10;0.10;;;;;;;10.44;53.69;100314.53;6077273;23;20358;-95
2024/01/04 01:43:13;;;;;;;0.30;0.30;;;;;;;10.50;53.84;100312.00;6081855;23;20378;-95
2024/01/04 01:45:42;;;;;;;0.30;0.30;;;;;;;10.53;54.02;100318.75;6079467;23;20448;-91
2024/01/04 01:48:08;;;;;;;0.20;0.20;;;;;;;10.57;53.79;100308.63;6076606;23;20362;-94
2024/01/04 01:50:37;;;;;;;0.20;0.20;;;;;;;10.70;53.79;100304.34;6079171;23;20921;-94
2024/01/04 01:53:07;;;;;;;0.10;0.10;;;;;;;10.86;53.75;100306.03;6120280;23;20400;-91
2024/01/04 01:55:33;;;;;;;0.40;0.40;;;;;;;10.88;54.01;100301.34;6121070;23;20380;-91
2024/01/04 01:57:59;;;;;;;0.17;0.17;;;;;;;11.04;54.02;100297.72;6094108;23;20479;-94
2024/01/04 02:00:26;;;;;;;0.10;0.10;;;;;;;11.18;53.85;100300.53;6085762;23;20487;-92
2024/01/04 02:02:53;;;;;;;0.20;0.20;;;;;;;11.37;53.62;100288.53;6068770;23;20479;-91
2024/01/04 02:05:19;;;;;;;0.20;0.20;;;;;;;11.37;53.61;100286.69;6069193;23;20376;-91
2024/01/04 02:07:48;;;;;;;0.10;0.10;;;;;;;11.35;53.85;100280.75;6069391;23;20788;-91
2024/01/04 02:10:16;;;;;;;0.10;0.10;;;;;;;11.39;53.79;100271.41;6093395;23;20491;-91
2024/01/04 02:12:42;;;;;;;0.60;0.50;;;;;;;11.50;53.70;100275.41;6067722;23;20880;-90
2024/01/04 02:15:08;;;;;;;0.10;0.10;;;;;;;11.61;53.68;100269.63;6091968;23;20373;-91
2024/01/04 02:17:34;;;;;;;0.20;0.20;;;;;;;11.55;53.76;100264.25;6068348;23;20369;-91
2024/01/04 02:20:00;;;;;;;0.20;0.20;;;;;;;11.67;53.55;100260.91;6068778;23;20419;-91
2024/01/04 02:22:26;;;;;;;0.10;0.10;;;;;;;11.71;53.28;100271.16;6068652;23;20453;-91
2024/01/04 02:24:51;;;;;;;0.17;0.17;;;;;;;11.71;53.63;100266.66;6093049;23;20392;-92
2024/01/04 02:27:20;;;;;;;0.10;0.10;;;;;;;11.75;53.57;100278.53;6097406;23;20392;-94
2024/01/04 02:29:51;;;;;;;0.20;0.20;;;;;;;11.82;53.52;100265.34;6072889;23;20369;-95
2024/01/04 02:32:20;;;;;;;0.30;0.30;;;;;;;11.94;53.26;100282.44;6094364;23;20384;-96
2024/01/04 02:34:50;;;;;;;0.40;0.40;;;;;;;11.87;53.08;100273.56;6111851;23;20388;-96
2024/01/04 02:37:19;;;;;;;0.30;0.30;;;;;;;11.85;53.00;100272.94;6094922;23;20349;-95
2024/01/04 02:39:45;;;;;;;1.30;0.90;;;;;;;11.92;52.94;100271.19;6110065;23;20392;-93
2024/01/04 02:42:14;;;;;;;0.32;0.32;;;;;;;11.92;53.04;100268.53;6087896;23;20399;-93
2024/01/04 02:44:41;;;;;;;0.80;0.80;;;;;;;12.02;53.02;100282.31;6084944;23;20403;-93
2024/01/04 02:47:07;;;;;;;1.30;0.40;;;;;;;12.03;52.90;100280.50;6147733;23;20368;-94
2024/01/04 02:49:35;;;;;;;0.10;0.10;;;;;;;12.05;52.84;100276.63;6137480;23;20360;-94
2024/01/04 02:52:01;;;;;;;0.10;0.10;;;;;;;12.04;52.52;100279.47;6102089;23;20372;-92
2024/01/04 02:54:26;;;;;;;0.10;0.10;;;;;;;12.03;52.71;100289.28;6121870;23;20493;-92
2024/01/04 02:56:52;;;;;;;0.10;0.10;;;;;;;11.95;52.48;100284.06;6122925;23;20368;-95
2024/01/04 02:59:20;;;;;;;0.15;0.15;;;;;;;12.09;52.62;100285.03;6105210;23;20367;-95
2024/01/04 03:01:48;;;;;;;0.20;0.20;;;;;;;12.09;52.27;100282.38;6101124;23;20367;-93
2024/01/04 03:04:16;;;;;;;0.30;0.30;;;;;;;12.01;52.48;100274.53;6100458;23;20407;-95
2024/01/04 03:06:42;;;;;;;0.30;0.30;;;;;;;11.96;52.69;100277.78;6125882;23;20363;-90
2024/01/04 03:09:08;;;;;;;0.17;0.17;;;;;;;11.98;52.47;100283.72;6097608;23;20458;-96
2024/01/04 03:11:34;;;;;;;0.30;0.30;;;;;;;11.87;52.58;100273.56;6099996;23;20356;-91
2024/01/04 03:13:59;;;;;;;0.30;0.30;;;;;;;11.66;53.24;100269.06;6098052;23;20367;-93
2024/01/04 03:16:25;;;;;;;0.13;0.13;;;;;;;11.69;53.25;100265.22;6123079;23;20481;-90
2024/01/04 03:18:51;;;;;;;0.20;0.20;;;;;;;11.86;52.64;100269.25;6097016;23;20521;-92
2024/01/04 03:21:17;;;;;;;0.23;0.23;;;;;;;11.84;52.54;100258.00;6096695;23;20391;-94
2024/01/04 03:23:43;;;;;;;0.20;0.13;;;;;;;11.96;52.67;100258.38;6098657;23;20376;-95
2024/01/04 03:26:09;;;;;;;0.10;0.10;;;;;;;12.00;52.35;100243.69;6074462;23;20375;-95
2024/01/04 03:28:35;;;;;;;0.20;0.13;;;;;;;11.96;52.62;100247.75;6098445;23;20678;-95
2024/01/04 03:31:01;;;;;;;0.20;0.20;;;;;;;11.84;52.71;100244.72;6097264;23;20375;-95
2024/01/04 03:33:30;;;;;;;0.30;0.30;;;;;;;11.76;52.67;100226.28;6124450;23;20360;-96
2024/01/04 03:35:56;;;;;;;0.30;0.30;;;;;;;11.76;52.58;100232.41;6123753;23;20431;-96
2024/01/04 03:38:22;;;;;;;0.10;0.10;;;;;;;11.77;52.73;100230.56;6123744;23;20360;-95
2024/01/04 03:40:50;;;;;;;0.20;0.20;;;;;;;11.63;53.00;100227.78;6102247;23;20419;-96
2024/01/04 03:43:19;;;;;;;0.10;0.10;;;;;;;11.51;53.13;100226.63;6128509;23;20442;-94
2024/01/04 03:45:45;;;;;;;1.00;0.40;;;;;;;11.42;53.60;100236.53;6128965;23;20383;-96
2024/01/04 03:48:13;;;;;;;0.10;0.10;;;;;;;11.43;53.28;100235.53;6126675;23;20372;-94
2024/01/04 03:50:39;;;;;;;0.10;0.10;;;;;;;11.47;53.28;100236.81;6125565;23;20384;-95
2024/01/04 03:53:05;;;;;;;0.17;0.17;;;;;;;11.50;53.09;100232.94;6125251;23;20826;-95
2024/01/04 03:55:34;;;;;;;0.10;0.10;;;;;;;11.39;53.62;100226.28;6100963;23;20443;-96
2024/01/04 03:58:00;;;;;;;0.10;0.10;;;;;;;11.39;53.33;100220.97;6128673;23;20367;-92
2024/01/04 04:00:28;;;;;;;0.10;0.10;;;;;;;11.48;52.91;100233.13;6124673;23;20878;-94
2024/01/04 04:02:58;;;;;;;0.20;0.20;;;;;;;11.43;53.03;100234.69;6100701;23;20371;-91
2024/01/04 04:05:24;;;;;;;0.10;0.10;;;;;;;11.53;52.91;100235.22;6102978;23;20364;-93
2024/01/04 04:07:50;;;;;;;0.10;0.10;;;;;;;11.53;52.57;100227.25;6127350;23;20367;-93
2024/01/04 04:10:16;;;;;;;0.20;0.20;;;;;;;11.60;52.42;100230.00;6102058;23;20385;-93
2024/01/04 04:12:42;;;;;;;0.10;0.10;;;;;;;11.65;52.51;100236.38;6124829;23;20412;-92
2024/01/04 04:15:09;;;;;;;0.10;0.10;;;;;;;11.67;52.50;100242.31;6125239;23;20444;-93
2024/01/04 04:17:35;;;;;;;0.17;0.17;;;;;;;11.75;52.17;100230.75;6098542;23;20383;-91
2024/01/04 04:20:03;;;;;;;0.10;0.10;;;;;;;11.77;52.02;100228.72;6098259;23;20364;-91
2024/01/04 04:22:34;;;;;;;0.10;0.10;;;;;;;11.80;52.23;100227.53;6097829;23;20360;-91
2024/01/04 04:25:02;;;;;;;0.10;0.10;;;;;;;11.75;52.05;100222.78;6097579;23;20380;-91
2024/01/04 04:27:28;;;;;;;0.50;0.20;;;;;;;11.77;51.89;100226.06;6098346;23;20450;-92
2024/01/04 04:29:54;;;;;;;0.20;0.20;;;;;;;11.75;51.94;100232.59;6099951;23;20455;-93
2024/01/04 04:32:20;;;;;;;0.22;0.22;;;;;;;11.73;52.06;100234.63;6123434;23;20364;-92
2024/01/04 04:34:45;;;;;;;0.20;0.13;;;;;;;11.66;52.11;100230.03;6124702;23;20375;-92
2024/01/04 04:37:13;;;;;;;0.40;0.40;;;;;;;11.60;52.32;100224.69;6114444;23;20388;-91
2024/01/04 04:39:39;;;;;;;0.20;0.20;;;;;;;11.54;52.30;100228.06;6127095;23;20375;-94
2024/01/04 04:42:08;;;;;;;0.10;0.10;;;;;;;11.65;52.19;100236.38;6147562;23;20383;-95
2024/01/04 04:44:36;;;;;;;0.10;0.10;;;;;;;11.73;52.21;100231.97;6111624;23;20380;-93
2024/01/04 04:47:05;;;;;;;0.13;0.13;;;;;;;11.67;51.80;100228.22;6102719;23;20356;-93
2024/01/04 04:49:34;;;;;;;0.30;0.30;;;;;;;11.60;52.12;100230.00;6102765;23;20657;-93
2024/01/04 04:52:00;;;;;;;1.00;1.00;;;;;;;11.38;52.38;100235.28;6125419;23;20441;-91
2024/01/04 04:54:25;;;;;;;0.20;0.20;;;;;;;11.18;52.69;100242.16;6102012;23;20359;-93
2024/01/04 04:56:51;;;;;;;0.30;0.30;;;;;;;10.98;53.34;100234.78;6112149;23;20416;-92
2024/01/04 04:59:16;;;;;;;0.30;0.30;;;;;;;11.04;53.29;100236.69;6123103;23;20356;-92
2024/01/04 05:01:44;;;;;;;0.33;0.33;;;;;;;11.14;52.61;100233.75;6122622;23;20370;-92
2024/01/04 05:04:11;;;;;;;0.20;0.20;;;;;;;11.08;53.04;100234.50;6125883;23;20376;-92
2024/01/04 05:06:36;;;;;;;0.32;0.30;;;;;;;11.06;53.29;100239.19;6122589;23;20368;-91
2024/01/04 05:09:02;;;;;;;0.30;0.30;;;;;;;11.06;53.05;100240.00;6098454;23;20414;-90
2024/01/04 05:11:28;;;;;;;0.87;0.87;;;;;;;11.10;53.15;100235.94;6098704;23;20463;-89
2024/01/04 05:13:53;;;;;;;0.50;0.50;;;;;;;11.15;53.12;100243.38;6100893;23;21302;-89
2024/01/04 05:16:19;;;;;;;1.48;1.38;;;;;;;11.14;53.09;100240.91;6103032;23;20363;-91
2024/01/04 05:18:45;;;;;;;0.30;0.30;;;;;;;11.12;53.11;100234.94;6102795;23;20356;-91
2024/01/04 05:21:12;;;;;;;1.33;1.23;;;;;;;11.11;53.18;100231.50;6129426;23;20356;-91
2024/01/04 05:23:38;;;;;;;0.80;0.75;;;;;;;11.15;52.99;100232.75;6105472;23;20463;-93
2024/01/04 05:26:04;;;;;;;1.88;1.10;;;;;;;11.18;53.22;100236.84;6101606;23;20363;-90
2024/01/04 05:28:30;;;;;;;0.50;0.50;;;;;;;11.17;53.42;100219.31;6105418;23;20895;-89
2024/01/04 05:30:56;;;;;;;0.40;0.40;;;;;;;11.34;52.92;100230.50;6127993;23;20387;-92
2024/01/04 05:33:22;;;;;;;0.68;0.68;;;;;;;11.35;52.97;100222.38;6101640;23;20689;-89
2024/01/04 05:35:50;;;;;;;0.40;0.40;;;;;;;11.53;53.00;100226.44;6127307;23;20360;-89
2024/01/04 05:38:16;;;;;;;0.60;0.60;;;;;;;11.62;52.74;100222.66;6098284;23;20367;-88
2024/01/04 05:40:42;;;;;;;0.30;0.30;;;;;;;11.62;52.91;100230.63;6100646;23;20441;-92
2024/01/04 05:43:10;;;;;;;1.10;0.80;;;;;;;11.68;53.09;100235.16;6125286;23;20384;-90
2024/01/04 05:45:35;;;;;;;0.43;0.43;;;;;;;11.68;52.79;100229.84;6099905;23;20387;-89
2024/01/04 05:48:02;;;;;;;0.60;0.60;;;;;;;11.79;52.41;100234.69;6100906;23;20452;-88
2024/01/04 05:50:28;;;;;;;0.10;0.10;;;;;;;11.88;52.52;100211.44;6099664;23;20716;-87
2024/01/04 05:53:03;;;;;;;0.30;0.30;;;;;;;11.93;52.85;100229.50;6106326;23;20910;-87
2024/01/04 05:55:30;;;;;;;0.35;0.35;;;;;;;11.89;52.98;100238.84;6106476;23;20447;-87
2024/01/04 05:57:58;;;;;;;0.55;0.55;;;;;;;11.94;52.86;100236.44;6132775;23;20423;-88
2024/01/04 06:00:24;;;;;;;0.22;0.22;;;;;;;12.01;52.94;100234.69;6107223;23;20367;-87
2024/01/04 06:02:49;;;;;;;0.32;0.32;;;;;;;12.09;52.86;100228.44;6130941;23;20375;-91
2024/01/04 06:05:21;;;;;;;0.35;0.35;;;;;;;12.12;52.58;100220.06;6136869;23;20356;-88
2024/01/04 06:07:47;;;;;;;0.65;0.65;;;;;;;12.17;52.36;100220.31;6136786;23;20375;-89
2024/01/04 06:10:13;;;;;;;0.10;0.10;;;;;;;12.17;52.49;100207.03;6122949;23;20368;-91
2024/01/04 06:12:41;;;;;;;0.20;0.20;;;;;;;12.20;52.22;100209.31;6120888;23;20368;-88
2024/01/04 06:15:10;;;;;;;0.40;0.40;;;;;;;12.11;52.18;100213.94;6104368;23;20356;-88
2024/01/04 06:17:36;;;;;;;0.30;0.30;;;;;;;12.11;52.25;100210.47;6124652;23;20364;-89
2024/01/04 06:20:02;;;;;;;0.30;0.30;;;;;;;12.08;52.13;100210.84;6101576;23;20375;-89
2024/01/04 06:22:31;;;;;;;0.50;0.50;;;;;;;12.03;52.32;100206.94;6126120;23;20379;-89
2024/01/04 06:25:00;;;;;;;0.30;0.30;;;;;;;12.05;52.27;100199.59;6102627;23;20394;-89
2024/01/04 06:27:28;;;;;;;0.20;0.20;;;;;;;12.17;52.15;100209.69;6104430;23;20366;-89
2024/01/04 06:29:54;;;;;;;0.20;0.20;;;;;;;12.18;52.09;100195.38;6103694;23;20820;-88
2024/01/04 06:32:22;;;;;;;0.40;0.40;;;;;;;12.12;51.75;100196.13;6104543;23;20384;-90
2024/01/04 06:34:48;;;;;;;0.88;0.88;;;;;;;12.01;52.13;100190.38;6103848;23;20359;-89
2024/01/04 06:37:14;;;;;;;0.67;0.67;;;;;;;11.96;52.39;100190.13;6104312;23;20360;-89
2024/01/04 06:39:39;;;;;;;0.30;0.30;;;;;;;12.10;52.27;100193.72;6103120;23;20452;-89
2024/01/04 06:42:08;;;;;;;0.57;0.57;;;;;;;12.08;52.24;100184.28;6111919;23;20435;-89
2024/01/04 06:44:36;;;;;;;0.25;0.25;;;;;;;12.00;52.36;100171.97;6125376;23;20387;-87
2024/01/04 06:47:02;;;;;;;0.22;0.22;;;;;;;12.07;52.16;100182.66;6129494;23;20395;-90
2024/01/04 06:49:31;;;;;;;0.28;0.28;;;;;;;11.90;52.22;100161.66;6102117;23;20427;-90
2024/01/04 06:52:01;;;;;;;0.10;0.10;;;;;;;11.91;52.20;100176.59;6126379;23;20399;-90
2024/01/04 06:54:32;;;;;;;0.30;0.30;;;;;;;11.78;52.33;100168.47;6101531;23;20712;-90
2024/01/04 06:56:58;;;;;;;0.20;0.20;;;;;;;11.71;52.34;100162.28;6128957;23;20451;-89
2024/01/04 06:59:24;;;;;;;0.20;0.20;;;;;;;11.72;52.49;100166.56;6105414;23;20348;-88
2024/01/04 07:01:52;;;;;;;0.20;0.20;;;;;;;11.66;52.27;100158.34;6113185;23;20364;-88
2024/01/04 07:04:18;;;;;;;0.20;0.20;;;;;;;11.44;52.72;100157.53;6125310;23;20434;-91
2024/01/04 07:06:48;;;;;;;0.70;0.70;;;;;;;11.28;53.05;100145.34;6131940;23;20370;-89
2024/01/04 07:09:14;;;;;;;0.95;0.90;;;;;;;10.98;53.44;100154.41;6132649;23;20451;-89
2024/01/04 07:11:44;;;;;;;0.93;0.85;;;;;;;10.67;54.00;100163.41;6131850;23;20360;-90
2024/01/04 07:14:09;;;;;;;0.50;0.50;;;;;;;10.52;54.30;100180.13;6128678;23;20370;-91
2024/01/04 07:16:42;;;;;;;0.50;0.50;;;;;;;10.46;54.57;100172.06;6104663;23;20368;-91
2024/01/04 07:19:08;;;;;;;1.00;1.00;;;;;;;10.31;54.72;100169.44;6128936;23;20368;-90
2024/01/04 07:21:39;;;;;;;0.28;0.28;;;;;;;10.45;54.42;100168.63;6131683;23;20367;-88
2024/01/04 07:24:05;;;;;;;0.30;0.30;;;;;;;10.61;54.25;100166.81;6111532;23;20448;-91
2024/01/04 07:26:31;;;;;;;0.10;0.10;;;;;;;10.93;53.43;100176.19;6110626;23;20368;-89
2024/01/04 07:29:01;;;;;;;0.20;0.20;;;;;;;11.12;53.08;100172.09;6131056;23;20371;-89
2024/01/04 07:31:27;;;;;;;0.10;0.10;;;;;;;11.22;52.88;100177.94;6125560;23;20932;-89
2024/01/04 07:33:56;;;;;;;0.10;0.10;;;;;;;11.34;52.55;100182.75;6102328;23;20368;-88
2024/01/04 07:36:22;;;;;;;0.20;0.20;;;;;;;11.36;52.42;100168.31;6131108;23;20379;-89
2024/01/04 07:38:51;;;;;;;0.40;0.40;;;;;;;11.36;52.35;100165.66;6128171;23;20364;-88
2024/01/04 07:41:16;;;;;;;0.30;0.30;;;;;;;11.16;52.96;100175.22;6105384;23;20379;-91
2024/01/04 07:43:47;;;;;;;0.52;0.52;;;;;;;10.95;53.65;100168.03;6131900;23;20906;-91
2024/01/04 07:46:13;;;;;;;0.95;0.95;;;;;;;10.76;53.90;100175.56;6113752;23;20371;-90
2024/01/04 07:48:41;;;;;;;0.82;0.82;;;;;;;10.65;54.35;100163.59;6091743;23;20372;-89
2024/01/04 07:51:07;;;;;;;1.10;1.10;;;;;;;10.75;54.31;100158.00;6137272;23;20363;-91
2024/01/04 07:53:40;;;;;;;1.10;0.60;;;;;;;10.83;54.40;100168.50;6110117;23;20356;-89
2024/01/04 07:56:06;;;;;;;2.60;1.00;;;;;;;11.02;54.10;100174.22;6137434;23;20351;-91
2024/01/04 07:58:32;;;;;;;1.00;0.90;;;;;;;11.07;54.18;100166.53;6117692;23;20364;-91
2024/01/04 08:00:58;;;;;;;0.57;0.57;;;;;;;11.12;54.48;100168.63;6119020;23;20387;-91
2024/01/04 08:03:28;;;;;;;1.00;1.00;;;;;;;11.25;54.57;100174.94;6116576;23;20395;-92
2024/01/04 08:05:55;;;;;;;0.68;0.68;;;;;;;11.19;54.74;100174.84;6109268;23;20364;-91
2024/01/04 08:08:21;;;;;;;0.40;0.40;;;;;;;11.16;54.98;100175.22;6112889;23;20371;-94
2024/01/04 08:10:46;;;;;;;0.30;0.30;;;;;;;11.29;54.62;100160.25;6111490;23;20386;-92
2024/01/04 08:13:16;;;;;;;0.30;0.30;;;;;;;11.46;54.09;100181.25;6106386;23;20399;-86
2024/01/04 08:15:42;;;;;;;0.30;0.30;;;;;;;11.55;54.24;100168.69;6097479;23;20776;-87
2024/01/04 08:18:08;;;;;;;0.30;0.30;;;;;;;11.71;53.88;100163.09;6098223;23;20506;-87
2024/01/04 08:20:34;;;;;;;0.70;0.70;;;;;;;11.86;53.62;100165.69;6124577;23;20360;-86
2024/01/04 08:23:00;;;;;;;0.30;0.30;;;;;;;11.97;53.45;100159.88;6123437;23;20399;-86
2024/01/04 08:25:27;;;;;;;0.10;0.10;;;;;;;12.14;53.25;100168.38;6125059;23;20367;-86
2024/01/04 08:27:53;;;;;;;0.30;0.30;;;;;;;12.30;53.08;100161.13;6101167;23;20427;-87
2024/01/04 08:30:22;;;;;;;0.65;0.65;;;;;;;12.42;52.94;100148.94;6099596;23;20372;-86
2024/01/04 08:32:50;;;;;;;0.30;0.30;;;;;;;12.57;52.78;100141.66;6122446;23;20371;-87
2024/01/04 08:35:18;;;;;;;1.10;1.00;;;;;;;12.68;52.22;100136.81;6123645;23;20753;-87
2024/01/04 08:37:47;;;;;;;0.30;0.30;;;;;;;12.83;52.58;100153.44;6123425;23;20360;-88
2024/01/04 08:40:13;;;;;;;0.27;0.27;;;;;;;12.91;52.53;100142.63;6099251;23;20438;-88
2024/01/04 08:42:39;;;;;;;0.20;0.20;;;;;;;12.99;52.28;100137.09;6102377;23;20359;-90
2024/01/04 08:45:10;;;;;;;0.57;0.57;;;;;;;13.03;52.19;100137.53;6131097;23;20391;-91
2024/01/04 08:47:36;;;;;;;0.30;0.30;;;;;;;13.11;52.32;100137.38;6124766;23;20401;-93
2024/01/04 08:50:05;;;;;;;1.00;1.00;;;;;;;13.15;52.24;100135.94;6125781;23;20391;-92
2024/01/04 08:52:31;;;;;;;1.02;0.90;;;;;;;13.19;52.41;100131.84;6143280;23;20414;-92
2024/01/04 08:54:57;;;;;;;1.00;1.00;;;;;;;13.19;52.38;100126.50;6112000;23;20385;-92
2024/01/04 08:57:24;;;;;;;1.30;1.10;;;;;;;13.14;52.86;100125.47;6111124;23;20360;-93
2024/01/04 08:59:52;;;;;;;1.10;0.60;;;;;;;13.25;52.80;100118.75;6108564;23;20447;-90
2024/01/04 09:02:29;;;;;;;0.40;0.40;;;;;;;13.33;52.70;100111.44;6101827;23;20453;-90
2024/01/04 09:04:58;;;;;;;0.45;0.45;;;;;;;13.31;52.59;100100.16;6098765;23;20389;-89
2024/01/04 09:07:26;;;;;;;0.20;0.20;;;;;;;13.36;52.60;100096.88;6105696;23;20362;-89
2024/01/04 09:09:53;;;;;;;0.10;0.10;;;;;;;13.57;52.22;100101.19;6088361;23;20385;-92
2024/01/04 09:12:21;;;;;;;0.30;0.30;;;;;;;13.68;52.07;100084.59;6068110;23;20374;-88
2024/01/04 09:14:47;;;;;;;0.23;0.23;;;;;;;13.83;52.00;100087.06;6096883;23;20431;-87
2024/01/04 09:17:20;;;;;;;0.30;0.30;;;;;;;13.88;51.73;100079.28;6097003;23;20869;-90
2024/01/04 09:19:57;;;;;;;0.20;0.20;;;;;;;14.01;51.39;100086.44;6097102;23;20366;-90
2024/01/04 09:22:32;;;;;;;0.40;0.40;;;;;;;14.14;51.58;100081.06;6100401;23;20461;-93
2024/01/04 09:25:04;;;;;;;1.00;0.50;;;;;;;14.19;51.15;100066.28;6103436;23;20390;-88
2024/01/04 09:27:42;;;;;;;0.40;0.40;;;;;;;14.29;51.21;100064.81;6097774;23;20396;-89
2024/01/04 09:30:18;;;;;;;1.00;0.98;;;;;;;14.33;50.74;100052.72;6075025;23;20817;-88
2024/01/04 09:32:48;;;;;;;0.28;0.28;;;;;;;14.43;50.57;100040.78;6098294;23;20754;-89
2024/01/04 09:35:21;;;;;;;0.15;0.15;;;;;;;14.55;50.41;100036.41;6072435;23;20381;-90
2024/01/04 09:37:49;;;;;;;0.22;0.22;;;;;;;14.64;50.28;100039.66;6050209;23;20431;-89
2024/01/04 09:40:21;;;;;;;1.80;0.70;;;;;;;14.81;50.08;100035.47;6097237;23;20374;-90
2024/01/04 09:42:48;;;;;;;0.55;0.55;;;;;;;14.89;50.28;100040.56;6098546;23;20370;-89
2024/01/04 09:45:18;;;;;;;0.50;0.50;;;;;;;15.02;50.18;100038.84;6071284;23;20473;-88
2024/01/04 09:47:56;;;;;;;0.38;0.38;;;;;;;15.05;50.02;100039.25;6075091;23;20363;-90
2024/01/04 09:50:26;;;;;;;1.02;0.90;;;;;;;15.08;50.13;100030.78;6055468;23;20356;-89
2024/01/04 09:52:56;;;;;;;0.40;0.40;;;;;;;15.15;50.04;100030.72;6053874;23;20867;-89
2024/01/04 09:55:25;;;;;;;0.38;0.38;;;;;;;15.19;50.00;100021.25;6076509;23;20349;-89
2024/01/04 09:58:00;;;;;;;0.40;0.40;;;;;;;15.36;49.78;100026.88;6053647;23;20367;-89
2024/01/04 10:00:26;;;;;;;0.50;0.50;;;;;;;15.36;49.61;100023.38;6075009;23;20367;-88
2024/01/04 10:02:53;;;;;;;0.20;0.20;;;;;;;15.43;49.73;100024.97;6046047;23;20384;-89
2024/01/04 10:05:37;;;;;;;0.30;0.30;;;;;;;15.51;49.43;100033.75;6046352;23;20387;-88
2024/01/04 10:08:27;;;;;;;2.90;1.20;;;;;;;15.46;49.29;100029.84;6074019;23;20413;-88
2024/01/04 10:10:56;;;;;;;0.20;0.20;;;;;;;15.58;49.43;100042.53;6047988;23;20403;-89
2024/01/04 10:13:22;;;;;;;0.30;0.30;;;;;;;15.71;49.32;100062.94;6071127;23;20851;-87
2024/01/04 10:15:48;;;;;;;5.25;4.75;;;;;;;15.70;49.20;100056.81;6084097;23;20427;-89
2024/01/04 10:18:14;;;;;;;3.20;2.55;;;;;;;15.67;49.19;100060.72;6104326;23;20456;-88
2024/01/04 10:20:39;;;;;;;0.70;0.70;;;;;;;15.59;49.11;100058.34;6104902;23;20481;-89
2024/01/04 10:23:07;;;;;;;1.00;0.67;;;;;;;15.62;49.42;100049.06;6131494;23;20364;-89
2024/01/04 10:25:46;;;;;;;0.80;0.70;;;;;;;15.73;49.13;100053.66;6130440;23;20356;-89
2024/01/04 10:28:19;;;;;;;0.40;0.40;;;;;;;15.80;49.16;100064.34;6129895;23;20368;-87
2024/01/04 10:30:55;;;;;;;1.70;0.75;;;;;;;15.56;49.18;100057.94;6099107;23;20373;-88
2024/01/04 10:33:21;;;;;;;0.40;0.40;;;;;;;15.36;49.49;100069.63;6116386;23;20397;-88
2024/01/04 10:35:49;;;;;;;0.20;0.20;;;;;;;15.02;50.96;100063.69;6119035;23;20354;-87
2024/01/04 10:38:18;;;;;;;0.20;0.20;;;;;;;14.97;51.36;100052.03;6118751;23;20357;-89
2024/01/04 10:40:53;;;;;;;0.10;0.10;;;;;;;15.04;51.26;100042.13;6142570;23;20362;-88
2024/01/04 10:43:23;;;;;;;0.40;0.40;;;;;;;14.90;51.61;100057.38;6120964;23;20369;-88
2024/01/04 10:45:52;;;;;;;0.22;0.22;;;;;;;14.79;51.77;100029.53;6100974;23;20395;-90
2024/01/04 10:48:23;;;;;;;0.10;0.10;;;;;;;14.93;51.45;100040.13;6066331;23;20372;-89
2024/01/04 10:50:48;;;;;;;0.40;0.40;;;;;;;14.78;51.82;100045.75;6085567;23;20434;-90
2024/01/04 10:53:22;;;;;;;0.70;0.70;;;;;;;14.60;52.18;100046.47;6059549;23;20402;-89
2024/01/04 10:55:50;;;;;;;0.50;0.50;;;;;;;14.55;52.38;100036.41;6060503;23;20375;-89
2024/01/04 10:58:48;;;;;;;0.82;0.73;;;;;;;14.64;52.27;100042.34;6086330;23;20367;-88
2024/01/04 11:01:16;;;;;;;0.50;0.43;;;;;;;14.60;52.39;100047.28;6076650;23;20371;-89
2024/01/04 11:03:43;;;;;;;0.10;0.10;;;;;;;14.53;52.45;100036.63;6075104;23;20386;-87
2024/01/04 11:06:28;;;;;;;0.32;0.32;;;;;;;14.39;52.69;100045.72;6071819;23;20413;-89
2024/01/04 11:08:57;;;;;;;0.68;0.68;;;;;;;14.55;52.62;100044.41;6097331;23;20452;-88
2024/01/04 11:11:26;;;;;;;0.30;0.30;;;;;;;14.61;52.16;100048.13;6083249;23;20373;-90
2024/01/04 11:14:04;;;;;;;0.20;0.20;;;;;;;14.65;52.09;100051.97;6089001;23;20385;-88
2024/01/04 11:16:51;;;;;;;0.10;0.10;;;;;;;14.61;52.59;100054.25;6120937;23;20362;-86
2024/01/04 11:19:42;;;;;;;0.70;0.50;;;;;;;14.50;52.82;100060.22;6081183;23;20362;-89
2024/01/04 11:22:56;;;;;;;0.20;0.20;;;;;;;14.60;52.93;100067.81;6079273;23;20832;-89
2024/01/04 11:25:40;;;;;;;0.43;0.43;;;;;;;14.51;53.64;100076.03;6076636;23;20395;-88
2024/01/04 11:28:14;;;;;;;1.00;1.00;;;;;;;14.30;54.72;100071.78;6101990;23;20369;-88